FDX5081 KMEM-EDDK
Flight info
| Callsign | FDX5081 |
|---|---|
| Flight time | N/A |
| Altitude | 33000 |
| Route | GOETZ7 DIYAB DCT HITMN Q34 RBV Q22 FOXWD DCT EBONY N567B TUDEP/M083F360 DCT 52N050W 53N040W 54N030W 55N020W DCT RESNO DCT NETKI/N0477F370 DCT CON DCT MORAG DCT NUCHU L607 BIG UL9 KONAN UL607 KOK DCT DENOX DCT REMBA UL607 SPI/N0442F230 T857 DENOV T861 ERUKI ERUKI1C |
| Aircraft | B77L/H-SDE1E2E3FGHIJ2J3J4J5M1RWXY/LB1D1 |
Departure
| Time | 2026-05-06 03:24 |
|---|---|
| Airport | Memphis International Airport (KMEM) |
Arrival
| Time | N/A |
|---|---|
| Airport | Cologne Bonn Airport (EDDK) |
| Time | Latitude | Longitude | Altitude | Speed | Heading |
|---|---|---|---|---|---|
| 2026-05-06 02:41 | 35.06524 | -89.98154 | 335 ft | 0 kts | 181° |
| 2026-05-06 03:12 | 35.06543 | -89.98153 | 332 ft | 4 kts | 181° |
| 2026-05-06 03:12 | 35.06565 | -89.98153 | 332 ft | 4 kts | 186° |
| 2026-05-06 03:12 | 35.06583 | -89.98143 | 330 ft | 4 kts | 261° |
| 2026-05-06 03:12 | 35.06583 | -89.98112 | 330 ft | 4 kts | 272° |
| 2026-05-06 03:13 | 35.06583 | -89.98097 | 330 ft | 0 kts | 272° |
| 2026-05-06 03:16 | 35.06583 | -89.98108 | 330 ft | 7 kts | 271° |
| 2026-05-06 03:16 | 35.06585 | -89.98178 | 330 ft | 8 kts | 271° |
| 2026-05-06 03:17 | 35.06559 | -89.98235 | 330 ft | 9 kts | 201° |
| 2026-05-06 03:17 | 35.06501 | -89.98243 | 332 ft | 9 kts | 183° |
| 2026-05-06 03:17 | 35.06441 | -89.98246 | 332 ft | 9 kts | 182° |
| 2026-05-06 03:17 | 35.06382 | -89.98249 | 332 ft | 9 kts | 182° |
| 2026-05-06 03:18 | 35.06322 | -89.98251 | 332 ft | 9 kts | 182° |
| 2026-05-06 03:18 | 35.06263 | -89.98254 | 332 ft | 9 kts | 182° |
| 2026-05-06 03:18 | 35.06204 | -89.98256 | 332 ft | 9 kts | 182° |
| 2026-05-06 03:18 | 35.06144 | -89.98259 | 332 ft | 9 kts | 182° |
| 2026-05-06 03:19 | 35.06085 | -89.98260 | 332 ft | 9 kts | 181° |
| 2026-05-06 03:19 | 35.06031 | -89.98284 | 330 ft | 9 kts | 229° |
| 2026-05-06 03:19 | 35.06022 | -89.98355 | 331 ft | 9 kts | 270° |
| 2026-05-06 03:19 | 35.06023 | -89.98428 | 331 ft | 9 kts | 272° |
| 2026-05-06 03:20 | 35.05943 | -89.98509 | 332 ft | 11 kts | 180° |
| 2026-05-06 03:20 | 35.05850 | -89.98505 | 328 ft | 16 kts | 180° |
| 2026-05-06 03:20 | 35.05736 | -89.98507 | 330 ft | 16 kts | 180° |
| 2026-05-06 03:21 | 35.05629 | -89.98508 | 332 ft | 15 kts | 180° |
| 2026-05-06 03:21 | 35.05522 | -89.98509 | 332 ft | 15 kts | 180° |
| 2026-05-06 03:21 | 35.05416 | -89.98510 | 331 ft | 15 kts | 180° |
| 2026-05-06 03:21 | 35.05309 | -89.98511 | 332 ft | 15 kts | 181° |
| 2026-05-06 03:22 | 35.05203 | -89.98512 | 333 ft | 15 kts | 181° |
| 2026-05-06 03:22 | 35.05097 | -89.98530 | 333 ft | 15 kts | 202° |
| 2026-05-06 03:22 | 35.05011 | -89.98580 | 332 ft | 13 kts | 206° |
| 2026-05-06 03:22 | 35.04943 | -89.98639 | 332 ft | 12 kts | 238° |
| 2026-05-06 03:23 | 35.04931 | -89.98723 | 334 ft | 6 kts | 267° |
| 2026-05-06 03:23 | 35.04907 | -89.98742 | 333 ft | 4 kts | 189° |
| 2026-05-06 03:23 | 35.04847 | -89.98741 | 334 ft | 18 kts | 179° |
| 2026-05-06 03:23 | 35.04577 | -89.98736 | 333 ft | 72 kts | 179° |
| 2026-05-06 03:24 | 35.03826 | -89.98721 | 332 ft | 142 kts | 179° |
| 2026-05-06 03:24 | 35.02653 | -89.98688 | 388 ft | 189 kts | 179° |
| 2026-05-06 03:24 | 35.01353 | -89.98650 | 1091 ft | 182 kts | 179° |
| 2026-05-06 03:24 | 35.00115 | -89.98637 | 1928 ft | 172 kts | 184° |
| 2026-05-06 03:25 | 34.98886 | -89.98501 | 2361 ft | 191 kts | 172° |
| 2026-05-06 03:25 | 34.97573 | -89.97771 | 2512 ft | 222 kts | 160° |
| 2026-05-06 03:25 | 34.96156 | -89.96840 | 2893 ft | 240 kts | 160° |
| 2026-05-06 03:25 | 34.94700 | -89.95705 | 3312 ft | 261 kts | 143° |
| 2026-05-06 03:26 | 34.93644 | -89.93813 | 3901 ft | 278 kts | 126° |
| 2026-05-06 03:26 | 34.92776 | -89.91677 | 4443 ft | 290 kts | 114° |
| 2026-05-06 03:26 | 34.92512 | -89.89173 | 5059 ft | 305 kts | 94° |
| 2026-05-06 03:26 | 34.92528 | -89.86569 | 5780 ft | 308 kts | 94° |
| 2026-05-06 03:27 | 34.92678 | -89.83968 | 6376 ft | 314 kts | 74° |
| 2026-05-06 03:27 | 34.93673 | -89.81585 | 6881 ft | 316 kts | 54° |
| 2026-05-06 03:27 | 34.94843 | -89.79281 | 7464 ft | 323 kts | 59° |
| 2026-05-06 03:27 | 34.95970 | -89.76909 | 8187 ft | 324 kts | 58° |
| 2026-05-06 03:28 | 34.97119 | -89.74529 | 8879 ft | 327 kts | 57° |
| 2026-05-06 03:28 | 34.98270 | -89.72113 | 9552 ft | 331 kts | 58° |
| 2026-05-06 03:28 | 34.99426 | -89.69665 | 10187 ft | 336 kts | 57° |
| 2026-05-06 03:28 | 35.00614 | -89.67143 | 10513 ft | 353 kts | 57° |
| 2026-05-06 03:29 | 35.01876 | -89.64466 | 10766 ft | 370 kts | 57° |
| 2026-05-06 03:29 | 35.03157 | -89.61737 | 11512 ft | 372 kts | 57° |
| 2026-05-06 03:29 | 35.04446 | -89.58984 | 12241 ft | 376 kts | 56° |
| 2026-05-06 03:29 | 35.05753 | -89.56194 | 12890 ft | 382 kts | 56° |
| 2026-05-06 03:30 | 35.07080 | -89.53360 | 13537 ft | 388 kts | 56° |
| 2026-05-06 03:30 | 35.08411 | -89.50517 | 14148 ft | 393 kts | 56° |
| 2026-05-06 03:30 | 35.09770 | -89.47608 | 14798 ft | 397 kts | 56° |
| 2026-05-06 03:30 | 35.11143 | -89.44669 | 15462 ft | 400 kts | 55° |
| 2026-05-06 03:31 | 35.12528 | -89.41701 | 16105 ft | 404 kts | 55° |
| 2026-05-06 03:31 | 35.13925 | -89.38706 | 16739 ft | 408 kts | 55° |
| 2026-05-06 03:31 | 35.15332 | -89.35684 | 17369 ft | 412 kts | 55° |
| 2026-05-06 03:31 | 35.16760 | -89.32617 | 17923 ft | 420 kts | 55° |
| 2026-05-06 03:32 | 35.18241 | -89.29442 | 18052 ft | 439 kts | 55° |
| 2026-05-06 03:32 | 35.19783 | -89.26129 | 18202 ft | 457 kts | 55° |
| 2026-05-06 03:32 | 35.21375 | -89.22685 | 18361 ft | 474 kts | 57° |
| 2026-05-06 03:32 | 35.22699 | -89.18942 | 18673 ft | 487 kts | 69° |
| 2026-05-06 03:33 | 35.23668 | -89.14940 | 19101 ft | 494 kts | 71° |
| 2026-05-06 03:33 | 35.24586 | -89.10870 | 19648 ft | 498 kts | 72° |
| 2026-05-06 03:33 | 35.25665 | -89.06856 | 20212 ft | 497 kts | 64° |
| 2026-05-06 03:33 | 35.27058 | -89.02993 | 20763 ft | 497 kts | 60° |
| 2026-05-06 03:34 | 35.28604 | -88.99195 | 21283 ft | 499 kts | 58° |
| 2026-05-06 03:34 | 35.30195 | -88.95395 | 21803 ft | 503 kts | 58° |
| 2026-05-06 03:34 | 35.31780 | -88.91557 | 22277 ft | 508 kts | 59° |
| 2026-05-06 03:34 | 35.33344 | -88.87660 | 22769 ft | 512 kts | 60° |
| 2026-05-06 03:35 | 35.34883 | -88.83716 | 23278 ft | 515 kts | 60° |
| 2026-05-06 03:35 | 35.36402 | -88.79738 | 23803 ft | 516 kts | 60° |
| 2026-05-06 03:35 | 35.37913 | -88.75736 | 24254 ft | 518 kts | 61° |
| 2026-05-06 03:35 | 35.39424 | -88.71713 | 24667 ft | 522 kts | 61° |
| 2026-05-06 03:36 | 35.40946 | -88.67657 | 25045 ft | 525 kts | 61° |
| 2026-05-06 03:36 | 35.42477 | -88.63578 | 25439 ft | 529 kts | 61° |
| 2026-05-06 03:36 | 35.44019 | -88.59471 | 25849 ft | 532 kts | 61° |
| 2026-05-06 03:36 | 35.45565 | -88.55352 | 26256 ft | 534 kts | 61° |
| 2026-05-06 03:37 | 35.47125 | -88.51196 | 26654 ft | 537 kts | 61° |